Time;durP1;ratioP1;P1;durP2;ratioP2;P2;SDS_P1;SDS_P2;PMS_P1;PMS_P2;Temp;Humidity;BMP_temperature;BMP_pressure;BME280_temperature;BME280_humidity;BME280_pressure;Samples;Min_cycle;Max_cycle;Signal;HPM_P1;HPM_P2
2022/05/01 00:00:34;;;;;;;14.13;8.13;;;;;;;5.57;67.52;101120.14;1732165;82;21068;-78
2022/05/01 00:03:03;;;;;;;13.63;6.50;;;;;;;5.54;67.54;101125.77;1727529;82;21036;-78
2022/05/01 00:05:30;;;;;;;13.30;8.00;;;;;;;5.50;67.52;101118.42;1732874;82;21072;-80
2022/05/01 00:07:58;;;;;;;14.20;7.90;;;;;;;5.46;67.49;101118.44;1724347;82;21062;-80
2022/05/01 00:10:26;;;;;;;14.53;7.60;;;;;;;5.43;67.67;101111.55;1727371;82;21520;-78
2022/05/01 00:12:53;;;;;;;13.33;7.73;;;;;;;5.42;67.74;101112.83;1733217;82;21029;-79
2022/05/01 00:15:20;;;;;;;15.63;8.63;;;;;;;5.37;67.80;101113.70;1732625;82;21462;-78
2022/05/01 00:17:48;;;;;;;13.47;7.70;;;;;;;5.36;67.93;101113.28;1731102;82;21542;-78
2022/05/01 00:20:15;;;;;;;12.30;8.23;;;;;;;5.36;68.09;101116.33;1733383;82;21028;-79
2022/05/01 00:22:42;;;;;;;11.43;7.03;;;;;;;5.33;68.11;101116.34;1727250;82;21159;-78
2022/05/01 00:25:09;;;;;;;11.60;7.10;;;;;;;5.30;68.25;101115.06;1730922;82;21044;-79
2022/05/01 00:27:36;;;;;;;14.50;7.97;;;;;;;5.27;68.21;101116.38;1727704;82;21103;-80
2022/05/01 00:30:06;;;;;;;14.70;8.17;;;;;;;5.26;68.32;101115.92;1724175;82;21481;-78
2022/05/01 00:36:25;;;;;;;14.70;7.47;;;;;;;5.27;68.60;101111.17;1729965;82;21044;-79
2022/05/01 00:37:48;;;;;;;12.17;8.10;;;;;;;5.25;68.65;101110.30;1727516;81;21040;-79
2022/05/01 00:40:15;;;;;;;12.87;7.43;;;;;;;5.24;68.85;101112.05;1730786;82;21020;-80
2022/05/01 00:42:42;;;;;;;12.20;8.13;;;;;;;5.22;68.81;101111.18;1725176;82;21020;-81
2022/05/01 00:45:09;;;;;;;14.13;7.47;;;;;;;5.20;68.88;101112.91;1730110;82;21757;-79
2022/05/01 00:47:36;;;;;;;14.23;7.80;;;;;;;5.19;68.91;101105.14;1730340;82;21080;-78
2022/05/01 00:50:04;;;;;;;14.60;7.87;;;;;;;5.17;68.86;101106.42;1721796;82;21075;-79
2022/05/01 00:52:32;;;;;;;17.00;9.27;;;;;;;5.18;69.00;101105.55;1722095;82;21056;-79
2022/05/01 00:54:59;;;;;;;14.27;8.67;;;;;;;5.17;69.01;101101.23;1727872;82;21072;-81
2022/05/01 00:57:26;;;;;;;15.67;8.83;;;;;;;5.14;69.01;101096.91;1721532;82;21001;-81
2022/05/01 00:59:53;;;;;;;14.43;8.70;;;;;;;5.11;69.06;101099.52;1730330;82;21119;-79
2022/05/01 01:02:21;;;;;;;17.40;9.00;;;;;;;5.08;69.08;101104.73;1714088;82;21231;-78
2022/05/01 01:04:48;;;;;;;15.37;8.50;;;;;;;5.05;69.15;101096.95;1724717;82;21025;-78
2022/05/01 01:07:15;;;;;;;17.73;9.50;;;;;;;5.04;69.15;101108.63;1722972;82;21087;-79
2022/05/01 01:09:42;;;;;;;14.80;8.90;;;;;;;5.02;69.39;101100.00;1727920;82;21520;-78
2022/05/01 01:15:09;;;;;;;15.60;9.20;;;;;;;5.02;69.61;101109.09;1727567;82;20934;-79
2022/05/01 01:17:41;;;;;;;15.13;8.77;;;;;;;5.02;69.71;101111.69;1726278;82;21009;-79
2022/05/01 01:20:12;;;;;;;15.07;8.77;;;;;;;5.01;69.78;101112.54;1722752;82;21036;-79
2022/05/01 01:22:40;;;;;;;12.97;8.53;;;;;;;4.99;69.66;101114.27;1726675;82;21541;-79
2022/05/01 01:25:11;;;;;;;15.07;9.30;;;;;;;4.98;69.87;101110.81;1731036;82;21086;-81
2022/05/01 01:27:38;;;;;;;14.93;8.60;;;;;;;4.99;69.96;101112.97;1731350;82;21610;-83
2022/05/01 01:32:55;;;;;;;15.33;9.47;;;;;;;4.96;70.02;101107.38;1723037;82;21532;-79
2022/05/01 01:35:25;;;;;;;14.47;9.20;;;;;;;4.98;70.01;101113.84;1717007;82;21047;-79
2022/05/01 01:37:55;;;;;;;15.15;8.88;;;;;;;4.96;70.04;101113.88;1731572;82;21990;-82
2022/05/01 01:40:29;;;;;;;17.73;9.00;;;;;;;4.95;70.17;101109.52;1729879;82;20999;-79
2022/05/01 01:42:58;;;;;;;14.87;9.43;;;;;;;4.96;70.24;101112.98;1722070;82;21468;-79
2022/05/01 01:45:29;;;;;;;14.70;9.63;;;;;;;4.95;70.40;101116.02;1728296;82;21165;-79
2022/05/01 01:48:10;;;;;;;14.77;9.07;;;;;;;4.93;70.57;101112.55;1726594;82;21182;-79
2022/05/01 01:50:37;;;;;;;15.40;9.50;;;;;;;4.95;70.77;101113.86;1722158;82;21281;-82
2022/05/01 01:53:04;;;;;;;17.17;9.40;;;;;;;4.97;70.87;101114.30;1732529;82;21025;-79
2022/05/01 01:55:38;;;;;;;14.57;9.23;;;;;;;5.01;71.05;101117.30;1727610;82;21432;-79
2022/05/01 01:58:06;;;;;;;15.50;9.00;;;;;;;5.05;71.22;101113.84;1730562;82;21060;-79
2022/05/01 02:00:34;;;;;;;16.03;9.63;;;;;;;5.07;71.23;101112.11;1707173;82;21038;-80
2022/05/01 02:03:05;;;;;;;16.87;9.73;;;;;;;5.07;71.13;101110.81;1732225;82;21050;-81
2022/05/01 02:05:34;;;;;;;14.30;9.20;;;;;;;5.06;71.11;101109.50;1728078;82;21015;-79
2022/05/01 02:08:02;;;;;;;13.83;9.13;;;;;;;5.04;71.20;101105.59;1721769;82;21537;-80
2022/05/01 02:10:29;;;;;;;16.03;9.17;;;;;;;5.03;71.19;101109.07;1719641;82;21024;-79
2022/05/01 02:12:56;;;;;;;16.17;9.77;;;;;;;5.00;71.12;101111.68;1730416;82;21675;-79
2022/05/01 02:15:23;;;;;;;16.23;9.67;;;;;;;5.03;71.29;101116.86;1718539;82;21102;-79
2022/05/01 02:17:51;;;;;;;17.20;8.93;;;;;;;5.03;71.33;101113.41;1719611;82;21536;-80
2022/05/01 02:20:18;;;;;;;17.63;9.60;;;;;;;5.04;71.30;101115.13;1726299;82;21045;-82
2022/05/01 02:22:45;;;;;;;16.77;10.30;;;;;;;5.01;71.30;101113.39;1731536;82;21560;-81
2022/05/01 02:25:12;;;;;;;13.57;8.90;;;;;;;4.97;71.18;101112.99;1728520;82;21487;-79
2022/05/01 02:27:39;;;;;;;18.40;8.93;;;;;;;4.95;71.17;101108.66;1727618;82;21120;-80
2022/05/01 02:30:08;;;;;;;18.10;8.83;;;;;;;4.92;71.21;101112.13;1734236;82;20980;-79
2022/05/01 02:32:39;;;;;;;15.43;9.27;;;;;;;4.88;71.08;101107.83;1725350;82;21248;-79
2022/05/01 02:35:09;;;;;;;14.60;8.73;;;;;;;4.84;71.14;101104.34;1725187;82;21029;-79
2022/05/01 02:37:36;;;;;;;17.23;9.03;;;;;;;4.81;71.12;101101.77;1729802;82;20991;-82
2022/05/01 02:40:05;;;;;;;14.97;8.83;;;;;;;4.77;71.10;101107.84;1719042;82;21088;-79
2022/05/01 02:42:32;;;;;;;15.27;7.87;;;;;;;4.72;70.95;101100.49;1730088;82;21073;-85
2022/05/01 02:44:59;;;;;;;14.10;8.63;;;;;;;4.69;71.02;101103.10;1732082;82;21048;-80
2022/05/01 02:47:26;;;;;;;13.37;7.90;;;;;;;4.66;71.06;101100.52;1732472;82;21371;-80
2022/05/01 02:49:53;;;;;;;14.60;8.27;;;;;;;4.60;71.11;101098.79;1726687;82;21046;-84
2022/05/01 02:52:21;;;;;;;14.70;8.80;;;;;;;4.59;71.14;101099.63;1724669;82;21560;-80
2022/05/01 02:54:48;;;;;;;15.77;9.23;;;;;;;4.57;71.12;101097.91;1726715;82;21009;-80
2022/05/01 02:57:15;;;;;;;16.17;9.33;;;;;;;4.52;71.07;101099.23;1725363;82;21011;-80
2022/05/01 02:59:43;;;;;;;14.20;9.53;;;;;;;4.51;71.20;101093.59;1723646;82;21044;-80
2022/05/01 03:02:10;;;;;;;17.13;9.97;;;;;;;4.50;71.16;101089.71;1721578;82;21055;-80
2022/05/01 03:04:38;;;;;;;19.10;10.67;;;;;;;4.44;71.16;101089.28;1713739;82;21118;-87
2022/05/01 03:07:07;;;;;;;16.50;10.17;;;;;;;4.40;71.23;101090.99;1666218;85;21063;-83
2022/05/01 03:09:34;;;;;;;20.27;10.17;;;;;;;4.35;71.09;101087.97;1664295;85;21107;-82
2022/05/01 03:12:03;;;;;;;16.20;10.30;;;;;;;4.30;71.21;101085.84;1705895;82;21190;-83
2022/05/01 03:14:30;;;;;;;17.30;10.03;;;;;;;4.24;71.24;101083.67;1729266;82;21089;-83
2022/05/01 03:16:57;;;;;;;14.33;10.03;;;;;;;4.20;71.40;101087.11;1723492;82;21107;-82
2022/05/01 03:22:17;;;;;;;17.57;9.90;;;;;;;4.11;71.44;101094.91;1729135;82;21059;-82
2022/05/01 03:24:42;;;;;;;17.40;9.57;;;;;;;4.07;71.52;101095.75;1722711;82;21063;-83
2022/05/01 03:27:10;;;;;;;13.60;9.73;;;;;;;4.02;71.53;101099.66;1730281;82;21400;-83
2022/05/01 03:29:38;;;;;;;14.10;9.23;;;;;;;3.98;71.63;101097.91;1724485;82;21132;-83
2022/05/01 03:32:09;;;;;;;15.50;8.93;;;;;;;3.96;71.69;101101.36;1722121;82;21521;-83
2022/05/01 03:34:39;;;;;;;12.67;8.23;;;;;;;3.93;71.76;101097.47;1711989;82;21032;-83
2022/05/01 03:37:07;;;;;;;14.83;8.20;;;;;;;3.92;71.92;101103.53;1691390;83;21079;-82
2022/05/01 03:39:36;;;;;;;16.80;8.53;;;;;;;3.91;72.05;101101.81;1694675;82;21018;-83
2022/05/01 03:42:04;;;;;;;12.87;8.10;;;;;;;3.91;72.18;101101.81;1723521;82;21184;-83
2022/05/01 03:44:31;;;;;;;13.23;8.00;;;;;;;3.87;72.10;101099.62;1719891;82;21024;-83
2022/05/01 03:46:58;;;;;;;15.03;8.67;;;;;;;3.86;72.20;101108.72;1726966;82;21578;-83
2022/05/01 03:49:25;;;;;;;14.70;8.50;;;;;;;3.86;72.28;101106.12;1725080;82;21139;-83
2022/05/01 03:51:52;;;;;;;15.97;8.13;;;;;;;3.84;72.42;101102.21;1730472;82;21537;-82
2022/05/01 03:54:20;;;;;;;16.03;8.43;;;;;;;3.88;72.52;101108.27;1726534;82;21236;-83
2022/05/01 03:56:46;;;;;;;12.83;7.90;;;;;;;3.89;72.69;101111.31;1722036;82;21061;-83
2022/05/01 03:59:13;;;;;;;11.00;7.50;;;;;;;3.89;72.57;101108.72;1718527;82;21116;-83
2022/05/01 04:01:42;;;;;;;11.90;7.97;;;;;;;3.87;72.65;101110.00;1726912;82;21025;-83
2022/05/01 04:04:09;;;;;;;17.13;8.30;;;;;;;3.87;72.73;101115.19;1725067;82;21657;-83
2022/05/01 04:06:36;;;;;;;15.77;8.17;;;;;;;3.89;72.84;101114.77;1718638;82;21874;-82
2022/05/01 04:09:03;;;;;;;14.93;8.57;;;;;;;3.90;72.91;101115.63;1727188;82;21465;-83
2022/05/01 04:11:30;;;;;;;11.97;8.17;;;;;;;3.92;72.95;101114.77;1718230;82;22139;-83
2022/05/01 04:13:57;;;;;;;12.77;8.33;;;;;;;3.98;73.17;101113.47;1728533;82;21032;-83
2022/05/01 04:16:24;;;;;;;16.87;8.90;;;;;;;4.02;73.05;101111.77;1724258;82;21051;-83
2022/05/01 04:18:51;;;;;;;16.47;9.67;;;;;;;4.07;73.05;101109.16;1722345;82;22492;-83
2022/05/01 04:21:19;;;;;;;16.30;9.67;;;;;;;4.16;73.27;101110.05;1731891;82;20993;-83
2022/05/01 04:23:46;;;;;;;13.30;8.50;;;;;;;4.21;73.22;101113.92;1718452;82;21012;-82
2022/05/01 04:26:13;;;;;;;15.03;8.80;;;;;;;4.32;73.48;101109.59;1725872;82;21487;-82
2022/05/01 04:29:36;;;;;;;18.30;8.87;;;;;;;4.43;73.64;101110.89;1727941;82;21482;-83
2022/05/01 04:31:08;;;;;;;15.73;8.93;;;;;;;4.51;73.42;101116.09;1707453;82;21067;-82
2022/05/01 04:33:36;;;;;;;14.53;8.67;;;;;;;4.58;73.43;101107.44;1692301;82;21020;-82
2022/05/01 04:36:03;;;;;;;12.00;8.73;;;;;;;4.61;73.35;101109.59;1703036;82;21558;-83
2022/05/01 04:38:31;;;;;;;15.37;9.53;;;;;;;4.66;73.43;101114.35;1717555;82;20949;-83
2022/05/01 04:41:03;;;;;;;15.93;11.13;;;;;;;4.71;73.53;101114.33;1725653;82;21019;-83
2022/05/01 04:43:28;;;;;;;15.23;10.70;;;;;;;4.79;74.38;101104.79;1729865;82;21249;-83
2022/05/01 04:46:01;;;;;;;16.95;10.28;;;;;;;4.91;74.67;101108.67;1702575;82;21043;-83
2022/05/01 04:48:28;;;;;;;16.00;10.60;;;;;;;5.01;74.99;101106.91;1702679;83;21064;-83
2022/05/01 04:50:55;;;;;;;17.27;11.87;;;;;;;5.13;75.12;101106.02;1696108;83;21520;-83
2022/05/01 04:53:22;;;;;;;17.00;10.63;;;;;;;5.23;75.27;101104.24;1684962;83;21309;-83
2022/05/01 04:55:52;;;;;;;15.93;10.70;;;;;;;5.32;75.43;101106.80;1701851;83;21935;-83
2022/05/01 04:58:20;;;;;;;17.57;11.85;;;;;;;5.41;75.59;101107.22;1700092;83;21057;-83
2022/05/01 05:00:48;;;;;;;21.77;11.63;;;;;;;5.49;75.59;101108.91;1695847;83;21404;-83
2022/05/01 05:03:15;;;;;;;15.57;11.17;;;;;;;5.59;75.63;101111.86;1702023;83;21015;-83
2022/05/01 05:05:42;;;;;;;15.60;10.80;;;;;;;5.70;75.74;101117.45;1694619;83;21123;-83
2022/05/01 05:10:55;;;;;;;18.70;11.80;;;;;;;5.90;75.92;101114.73;1700736;83;20992;-83
2022/05/01 05:13:26;;;;;;;18.33;11.77;;;;;;;6.01;75.92;101119.46;1696791;83;21035;-83
2022/05/01 05:15:58;;;;;;;18.80;11.43;;;;;;;6.09;75.92;101115.51;1701134;83;21005;-82
2022/05/01 05:18:21;;;;;;;19.07;12.30;;;;;;;6.18;75.84;101117.63;1688745;83;21517;-82
2022/05/01 05:20:48;;;;;;;18.67;12.80;;;;;;;6.27;75.80;101115.83;1699740;83;21107;-83
2022/05/01 05:23:15;;;;;;;20.77;13.43;;;;;;;6.37;75.77;101118.77;1691158;83;21058;-83
2022/05/01 05:25:42;;;;;;;20.77;13.80;;;;;;;6.45;75.72;101116.52;1687554;83;21030;-82
2022/05/01 05:28:09;;;;;;;18.53;12.83;;;;;;;6.56;75.71;101120.33;1697578;84;21067;-82
2022/05/01 05:30:36;;;;;;;20.50;12.30;;;;;;;6.66;75.47;101121.98;1704365;84;21471;-74
2022/05/01 05:33:04;;;;;;;16.57;12.07;;;;;;;6.76;75.11;101117.98;1692832;83;21114;-76
2022/05/01 05:35:31;;;;;;;20.77;11.73;;;;;;;6.86;74.73;101121.78;1700951;83;21035;-78
2022/05/01 05:37:58;;;;;;;15.97;11.53;;;;;;;6.96;74.48;101123.87;1695712;82;21053;-75
2022/05/01 05:40:25;;;;;;;18.07;11.83;;;;;;;7.06;74.32;101122.87;1695314;83;21044;-82
2022/05/01 05:42:52;;;;;;;18.00;11.87;;;;;;;7.17;74.30;101120.59;1702322;83;22266;-75
2022/05/01 05:45:20;;;;;;;17.53;11.53;;;;;;;7.27;74.11;101126.98;1700863;83;22392;-81
2022/05/01 05:47:47;;;;;;;17.00;10.80;;;;;;;7.39;73.72;101125.97;1703124;83;21057;-77
2022/05/01 05:50:14;;;;;;;17.47;10.93;;;;;;;7.50;73.38;101128.45;1716887;82;21068;-81
2022/05/01 05:52:41;;;;;;;16.97;10.47;;;;;;;7.62;73.23;101127.42;1726974;82;21024;-78
2022/05/01 05:55:09;;;;;;;16.43;9.90;;;;;;;7.73;73.02;101130.33;1726561;82;20972;-77
2022/05/01 05:57:36;;;;;;;13.37;9.17;;;;;;;7.82;72.42;101126.28;1723049;82;21498;-77
2022/05/01 06:00:05;;;;;;;14.90;10.47;;;;;;;7.94;71.93;101122.63;1729870;82;21092;-78
2022/05/01 06:02:35;;;;;;;15.83;10.33;;;;;;;8.05;71.60;101122.47;1724347;82;21012;-79
2022/05/01 06:05:03;;;;;;;16.37;10.00;;;;;;;8.19;71.58;101123.56;1729995;82;21048;-77
2022/05/01 06:07:30;;;;;;;16.20;10.67;;;;;;;8.32;71.52;101120.33;1728924;82;21060;-80
2022/05/01 06:09:57;;;;;;;15.70;10.07;;;;;;;8.44;71.28;101125.37;1729135;82;21597;-78
2022/05/01 06:12:25;;;;;;;14.77;10.07;;;;;;;8.59;71.04;101123.81;1731278;82;22214;-77
2022/05/01 06:14:52;;;;;;;12.90;9.77;;;;;;;8.71;70.61;101122.73;1728346;82;21055;-77
2022/05/01 06:17:19;;;;;;;12.90;8.53;;;;;;;8.84;70.42;101125.97;1720931;82;21055;-79
2022/05/01 06:19:47;;;;;;;14.97;9.03;;;;;;;8.98;69.63;101127.02;1731655;82;21017;-80
2022/05/01 06:22:16;;;;;;;15.40;9.20;;;;;;;9.11;69.28;101126.76;1730685;82;21534;-76
2022/05/01 06:24:43;;;;;;;12.67;8.00;;;;;;;9.31;69.21;101129.00;1724013;82;20944;-76
2022/05/01 06:27:10;;;;;;;14.33;7.70;;;;;;;9.49;68.35;101128.20;1734602;82;21000;-76
2022/05/01 06:29:37;;;;;;;11.47;7.50;;;;;;;9.63;67.70;101131.84;1730594;82;21012;-77
2022/05/01 06:32:06;;;;;;;13.60;7.87;;;;;;;9.78;67.48;101125.83;1730661;82;21671;-87
2022/05/01 06:34:35;;;;;;;12.10;7.80;;;;;;;9.95;67.02;101125.45;1728596;82;21200;-75
2022/05/01 06:37:03;;;;;;;14.70;7.57;;;;;;;10.08;66.63;101122.08;1723631;82;21449;-76
2022/05/01 06:39:30;;;;;;;16.53;8.07;;;;;;;10.24;66.14;101123.89;1704547;83;20891;-76
2022/05/01 06:41:57;;;;;;;12.03;7.47;;;;;;;10.39;66.10;101128.81;1700502;83;21046;-76
2022/05/01 06:44:24;;;;;;;12.67;7.57;;;;;;;10.59;65.85;101126.14;1701203;84;21022;-78
2022/05/01 06:46:50;;;;;;;11.67;7.60;;;;;;;10.76;65.41;101127.87;1697676;84;21817;-78
2022/05/01 06:49:17;;;;;;;14.40;7.87;;;;;;;10.91;64.91;101130.06;1699550;84;21038;-76
2022/05/01 06:51:45;;;;;;;10.80;7.93;;;;;;;11.04;64.63;101133.23;1701255;84;21064;-76
2022/05/01 06:54:12;;;;;;;14.13;9.03;;;;;;;11.15;63.98;101130.31;1697619;82;21488;-77
2022/05/01 06:56:41;;;;;;;12.77;8.20;;;;;;;11.24;63.34;101127.42;1700046;83;21046;-76
2022/05/01 06:59:08;;;;;;;11.50;7.87;;;;;;;11.35;63.41;101131.06;1710875;82;21158;-76
2022/05/01 07:01:35;;;;;;;11.57;7.47;;;;;;;11.46;62.82;101126.82;1727947;82;21038;-78
2022/05/01 07:04:02;;;;;;;13.83;7.80;;;;;;;11.56;62.40;101126.97;1697355;83;21035;-76
2022/05/01 07:06:29;;;;;;;11.70;7.50;;;;;;;11.66;62.01;101121.83;1698640;84;21512;-77
2022/05/01 07:08:56;;;;;;;12.83;7.90;;;;;;;11.75;61.74;101129.45;1687635;83;21074;-75
2022/05/01 07:11:23;;;;;;;15.47;8.27;;;;;;;11.85;61.55;101123.45;1699629;83;21848;-78
2022/05/01 07:13:49;;;;;;;11.85;8.40;;;;;;;11.97;61.12;101119.61;1702048;83;21060;-77
2022/05/01 07:16:19;;;;;;;12.95;7.58;;;;;;;12.05;60.91;101125.48;1686896;83;21456;-79
2022/05/01 07:18:45;;;;;;;11.73;7.53;;;;;;;12.13;60.44;101122.16;1698706;83;21046;-79
2022/05/01 07:21:12;;;;;;;12.57;7.70;;;;;;;12.22;60.13;101114.43;1698550;84;21481;-79
2022/05/01 07:23:39;;;;;;;13.35;7.75;;;;;;;12.30;60.01;101113.73;1698770;83;21755;-79
2022/05/01 07:26:06;;;;;;;13.00;8.13;;;;;;;12.44;59.64;101114.59;1694586;83;21082;-77
2022/05/01 07:28:34;;;;;;;11.68;7.55;;;;;;;12.52;59.39;101116.50;1701034;83;21651;-78
2022/05/01 07:31:03;;;;;;;11.60;7.72;;;;;;;12.61;59.23;101122.79;1700222;83;21056;-83
2022/05/01 07:33:30;;;;;;;13.28;7.58;;;;;;;12.69;58.78;101116.81;1698224;83;21011;-76
2022/05/01 07:36:02;;;;;;;11.15;7.67;;;;;;;12.77;58.52;101116.52;1703115;83;21186;-76
2022/05/01 07:38:26;;;;;;;12.13;7.80;;;;;;;12.87;58.43;101117.08;1700198;83;21005;-75
2022/05/01 07:40:53;;;;;;;13.38;7.65;;;;;;;12.98;58.21;101115.39;1699210;83;21023;-77
2022/05/01 07:43:20;;;;;;;13.00;7.85;;;;;;;13.10;58.33;101118.88;1701392;83;21049;-80
2022/05/01 07:45:47;;;;;;;11.28;7.00;;;;;;;13.20;57.71;101112.84;1698371;83;21044;-76
2022/05/01 07:48:14;;;;;;;9.65;7.30;;;;;;;13.24;57.39;101112.66;1696851;83;21727;-79
2022/05/01 07:50:41;;;;;;;13.08;8.23;;;;;;;13.32;57.13;101114.58;1717466;82;21017;-78
2022/05/01 07:53:09;;;;;;;11.63;7.60;;;;;;;13.38;56.90;101113.06;1715998;82;21039;-81
2022/05/01 07:55:36;;;;;;;11.10;7.55;;;;;;;13.50;56.64;101114.37;1730026;82;20977;-82
2022/05/01 07:58:02;;;;;;;10.28;7.03;;;;;;;13.57;56.36;101110.56;1732438;82;21071;-76
2022/05/01 08:00:29;;;;;;;13.88;7.90;;;;;;;13.66;56.17;101108.50;1730186;82;21072;-76
2022/05/01 08:05:42;;;;;;;10.93;7.33;;;;;;;13.93;56.73;101103.47;1729927;82;21009;-76
2022/05/01 08:08:09;;;;;;;10.85;7.45;;;;;;;14.19;56.18;101098.91;1721102;82;21052;-80
2022/05/01 08:10:36;;;;;;;9.93;7.55;;;;;;;14.29;55.60;101100.27;1711054;82;21329;-78
2022/05/01 08:13:03;;;;;;;10.68;7.60;;;;;;;14.38;55.34;101094.63;1718411;82;21947;-75
2022/05/01 08:15:31;;;;;;;13.70;7.60;;;;;;;14.52;55.06;101098.01;1731159;82;21045;-77
2022/05/01 08:21:05;;;;;;;13.45;7.42;;;;;;;14.60;54.67;101096.38;1727397;82;21056;-85
2022/05/01 08:23:11;;;;;;;10.53;7.08;;;;;;;14.71;54.22;101092.81;1727364;83;21052;-86
2022/05/01 08:25:40;;;;;;;12.65;7.25;;;;;;;14.82;53.95;101086.59;1722546;82;21103;-81
2022/05/01 08:28:09;;;;;;;10.35;7.15;;;;;;;14.90;53.97;101079.67;1732941;82;21016;-79
2022/05/01 08:30:36;;;;;;;11.05;7.62;;;;;;;15.04;53.53;101079.91;1718866;82;21005;-75
2022/05/01 08:33:04;;;;;;;8.18;6.12;;;;;;;15.17;53.41;101078.44;1695115;84;21060;-76
2022/05/01 08:35:31;;;;;;;9.20;6.12;;;;;;;15.27;53.18;101078.89;1705522;82;21068;-80
2022/05/01 08:38:00;;;;;;;9.85;6.72;;;;;;;15.45;53.51;101079.81;1723865;82;21192;-81
2022/05/01 08:40:28;;;;;;;8.03;6.20;;;;;;;15.76;53.43;101072.64;1722375;82;21052;-79
2022/05/01 08:42:55;;;;;;;9.40;6.37;;;;;;;15.99;53.64;101067.59;1721501;82;21188;-81
2022/05/01 08:45:26;;;;;;;12.20;6.40;;;;;;;16.26;53.19;101067.13;1729348;82;21391;-81
2022/05/01 08:48:07;;;;;;;8.93;6.30;;;;;;;16.40;52.33;101067.76;1716828;82;21299;-79
2022/05/01 08:50:36;;;;;;;9.65;6.00;;;;;;;16.53;52.02;101065.36;1723959;81;21965;-81
2022/05/01 08:53:05;;;;;;;8.33;5.60;;;;;;;16.64;51.24;101062.54;1719154;82;21493;-80
2022/05/01 08:55:32;;;;;;;7.42;5.83;;;;;;;16.79;51.04;101064.03;1728233;82;21024;-80
2022/05/01 08:58:01;;;;;;;9.40;6.55;;;;;;;16.99;50.12;101066.50;1698902;82;21037;-80
2022/05/01 09:00:28;;;;;;;8.38;6.45;;;;;;;16.99;50.12;101066.50;1712938;82;21066;-82
2022/05/01 09:02:55;;;;;;;8.53;6.00;;;;;;;17.04;49.82;101062.27;1724542;82;21139;-76
2022/05/01 09:05:23;;;;;;;8.68;6.28;;;;;;;17.09;49.59;101069.50;1713245;82;21036;-83
2022/05/01 09:07:50;;;;;;;10.28;6.50;;;;;;;17.17;49.69;101062.00;1721529;82;21057;-84
2022/05/01 09:10:18;;;;;;;6.90;4.78;;;;;;;17.42;49.71;101068.61;1720551;82;21048;-80
2022/05/01 09:12:53;;;;;;;7.53;5.20;;;;;;;17.69;48.87;101055.15;1715552;82;21048;-84
2022/05/01 09:15:31;;;;;;;7.62;4.92;;;;;;;17.93;48.37;101058.25;1724709;82;21343;-86
2022/05/01 09:18:09;;;;;;;8.00;5.15;;;;;;;18.17;48.05;101061.73;1726370;82;20917;-80
2022/05/01 09:20:42;;;;;;;8.53;5.80;;;;;;;18.39;47.19;101060.01;1726002;82;21106;-85
2022/05/01 09:23:09;;;;;;;11.48;6.22;;;;;;;18.53;46.41;101052.07;1710791;82;21099;-81
2022/05/01 09:25:36;;;;;;;13.70;11.15;;;;;;;18.63;46.10;101054.56;1715583;82;21532;-87
2022/05/01 09:28:22;;;;;;;15.98;9.30;;;;;;;18.75;45.67;101052.14;1715611;82;21161;-80
2022/05/01 09:30:49;;;;;;;10.20;6.83;;;;;;;18.81;44.29;101055.27;1725243;82;21099;-80
2022/05/01 09:33:21;;;;;;;12.50;6.78;;;;;;;18.92;44.30;101056.78;1701861;83;21005;-80
2022/05/01 09:35:49;;;;;;;9.03;5.60;;;;;;;19.09;44.19;101049.58;1700086;84;20990;-82
2022/05/01 09:38:23;;;;;;;8.70;4.83;;;;;;;19.26;43.96;101051.17;1698636;83;21015;-81
2022/05/01 09:40:56;;;;;;;10.58;5.10;;;;;;;19.46;43.55;101053.45;1713966;83;21079;-78
2022/05/01 09:43:47;;;;;;;7.40;5.60;;;;;;;19.59;42.81;101049.05;1713741;83;21027;-84
2022/05/01 09:46:19;;;;;;;7.42;5.58;;;;;;;19.70;42.55;101051.50;1687045;83;20983;-82
2022/05/01 09:49:13;;;;;;;10.63;4.28;;;;;;;19.84;41.99;101048.80;1714000;82;21485;-86
2022/05/01 09:51:46;;;;;;;7.33;4.60;;;;;;;19.94;41.41;101051.23;1728668;82;21009;-82
2022/05/01 09:54:22;;;;;;;7.75;4.42;;;;;;;20.03;40.87;101042.63;1721533;82;21180;-80
2022/05/01 09:56:57;;;;;;;7.55;5.37;;;;;;;20.22;41.11;101046.25;1730260;82;21576;-79
2022/05/01 09:59:27;;;;;;;7.30;5.05;;;;;;;20.39;40.42;101055.76;1730412;82;20936;-80
2022/05/01 10:02:01;;;;;;;6.55;5.90;;;;;;;20.53;40.07;101049.98;1726204;82;21042;-79
2022/05/01 10:04:33;;;;;;;7.55;5.67;;;;;;;20.60;39.62;101042.83;1723639;82;21097;-80
2022/05/01 10:07:01;;;;;;;7.55;5.10;;;;;;;20.66;39.46;101033.56;1728866;82;21058;-86
2022/05/01 10:09:34;;;;;;;8.03;5.20;;;;;;;20.81;39.11;101030.30;1722777;82;21575;-79
2022/05/01 10:12:07;;;;;;;6.90;5.45;;;;;;;20.99;38.80;101030.84;1721186;82;20992;-80
2022/05/01 10:14:35;;;;;;;6.83;4.67;;;;;;;21.01;38.31;101031.11;1724385;82;21118;-82
2022/05/01 10:17:03;;;;;;;8.03;5.25;;;;;;;21.24;38.59;101028.12;1725860;82;21041;-79
2022/05/01 10:19:31;;;;;;;8.70;5.87;;;;;;;21.35;38.27;101023.35;1729008;82;21809;-80
2022/05/01 10:22:00;;;;;;;9.75;5.50;;;;;;;21.57;38.03;101024.01;1727470;82;22016;-84
2022/05/01 10:24:28;;;;;;;6.20;5.33;;;;;;;21.74;37.56;101020.09;1729319;82;21100;-86
2022/05/01 10:27:30;;;;;;;8.48;5.50;;;;;;;21.94;37.60;101022.61;1726458;82;21056;-84
2022/05/01 10:33:29;;;;;;;10.78;5.67;;;;;;;22.44;37.03;101016.59;1715670;82;21143;-83
2022/05/01 10:36:22;;;;;;;8.73;5.47;;;;;;;22.68;36.76;101018.70;1726270;82;20929;-84
2022/05/01 10:39:09;;;;;;;8.95;5.20;;;;;;;22.88;36.20;101016.29;1719064;82;21062;-84
2022/05/01 10:41:43;;;;;;;6.83;4.83;;;;;;;23.11;36.35;101019.83;1728855;82;20977;-83
2022/05/01 10:44:30;;;;;;;7.47;4.97;;;;;;;23.31;36.14;101007.55;1721146;82;21051;-83
2022/05/01 10:47:13;;;;;;;6.30;4.78;;;;;;;23.46;35.56;101007.63;1720034;82;21146;-84
2022/05/01 10:49:46;;;;;;;7.92;5.17;;;;;;;23.64;35.09;101001.73;1715325;82;21056;-83
2022/05/01 10:52:19;;;;;;;8.33;5.17;;;;;;;23.40;34.71;101002.78;1725934;82;21036;-84
2022/05/01 10:55:06;;;;;;;8.33;5.10;;;;;;;23.16;34.50;100998.92;1718520;82;20998;-84
2022/05/01 10:57:31;;;;;;;7.45;5.55;;;;;;;23.25;34.62;100996.86;1732762;82;20991;-85
2022/05/01 11:00:10;;;;;;;10.48;5.55;;;;;;;23.39;34.25;100991.73;1729040;82;21119;-83
2022/05/01 11:02:51;;;;;;;8.48;5.53;;;;;;;23.58;33.88;100993.26;1722536;82;21055;-84
2022/05/01 11:05:44;;;;;;;6.87;4.95;;;;;;;23.45;33.66;100989.04;1728614;82;21069;-83
2022/05/01 11:08:17;;;;;;;6.35;4.60;;;;;;;23.09;33.43;100993.23;1730189;82;21011;-84
2022/05/01 11:10:44;;;;;;;8.40;5.10;;;;;;;22.92;33.30;100988.36;1727879;82;21278;-84
2022/05/01 11:13:20;;;;;;;6.83;4.35;;;;;;;22.89;33.30;100986.78;1710917;82;21108;-83
2022/05/01 11:15:51;;;;;;;8.45;4.67;;;;;;;22.67;33.24;100988.12;1658468;83;21715;-84
2022/05/01 11:18:23;;;;;;;6.30;4.17;;;;;;;22.87;33.83;100985.20;1690982;82;20968;-84
2022/05/01 11:20:51;;;;;;;8.25;4.78;;;;;;;23.05;33.91;100982.89;1689695;82;21036;-84
2022/05/01 11:23:33;;;;;;;6.47;4.05;;;;;;;23.44;33.59;100972.11;1689896;83;21270;-83
2022/05/01 11:26:11;;;;;;;6.50;4.05;;;;;;;23.97;33.71;100969.98;1696320;82;21008;-83
2022/05/01 11:28:52;;;;;;;5.92;4.12;;;;;;;24.29;32.82;100975.79;1687994;82;20997;-83
2022/05/01 11:31:47;;;;;;;5.20;4.03;;;;;;;24.22;32.45;100969.63;1678835;83;21087;-83
2022/05/01 11:34:25;;;;;;;5.22;4.15;;;;;;;24.25;32.25;100972.53;1691183;82;21711;-83
2022/05/01 11:37:03;;;;;;;8.55;3.98;;;;;;;23.98;32.06;100971.70;1686964;82;21071;-84
2022/05/01 11:39:53;;;;;;;6.67;4.30;;;;;;;23.73;32.06;100959.05;1691871;82;21194;-84
2022/05/01 11:42:32;;;;;;;6.25;3.95;;;;;;;23.90;31.99;100956.78;1698845;82;21028;-84
2022/05/01 11:45:04;;;;;;;4.12;3.42;;;;;;;24.29;32.16;100955.20;1686470;83;20971;-84
2022/05/01 11:47:33;;;;;;;5.97;3.92;;;;;;;24.25;32.02;100957.30;1686414;82;21509;-83
2022/05/01 11:50:01;;;;;;;;;;;;;;;24.01;31.73;100952.20;1701244;82;21096;-81
2022/05/01 11:52:28;;;;;;;6.40;4.97;;;;;;;23.83;31.50;100944.38;1695993;84;21152;-83
2022/05/01 11:54:58;;;;;;;9.00;6.55;;;;;;;23.80;31.83;100952.17;1692588;83;21044;-84